Tropical Cyclones
[Index]
Main Index Home Page Stock Weather Photos Extreme Storms Discussion Storm News and Storm Chasing Reports Tropical Cyclones / Hurricanes / Typhoons Weather Data and Links Wild Fires / Bushfires Weather Observation Techniques Weather Picture Catalogue Tornado Pictures and Reports Stock Video Footage and DVDs for sale
Season 2014-2015 Tropical Cyclone GLENDA Track Map
Season 2014-2015 Summaries (Operational Data): [AU] [SIO] [SPAC] [SH]
<<- Previous TC | 2014-2015 Season | Next TC ->>

click for intensity scale information  Lat/long Grid: Show Hide

 Date Labels: Show Hide

Operational Tropical Cyclone Data : JTWC Advisories

Name: GLENDA
Number: 1514

14 Feb 2015 12:00 UTC to 03 Mar 2015 18:00 UTC

    date/time    lat    long     hPa   cat  kts
2015-02-14 12    9.2    75.5    1010         15          
2015-02-14 18    8.7    76.6    1010         15          
2015-02-15 00    8.1    78.1    1010         15          
2015-02-15 06    7.7    79.1    1010         15          
2015-02-15 12    7.3    79.7    1007         20          
2015-02-15 18    7.2    79.7    1010         15          
2015-02-16 00    7.3    79.4    1007         20          
2015-02-16 06    7.4    79.2    1007         20          
2015-02-16 12    7.5    78.8    1007         20          
2015-02-16 18    9.0    79.5    1007         20          
2015-02-17 00    9.4    80.1    1007         20          
2015-02-17 06    9.7    80.7    1007         20          
2015-02-17 12   10.1    81.2    1004         25          
2015-02-17 18    8.6    85.6    1007         20          
2015-02-18 00    8.8    86.1    1007         20          
2015-02-18 06    8.7    86.8    1007         20          
2015-02-18 12    8.6    87.8    1005         20          
2015-02-18 18    7.9    88.3    1007         20          
2015-02-19 00    7.9    88.9    1007         20          
2015-02-19 06    8.0    90.7    1007         20          
2015-02-19 12    9.7    91.6    1005         20          
2015-02-19 18   10.8    91.5    1007         20          
2015-02-20 00   11.4    90.8    1007         20          
2015-02-20 06   11.7    90.2    1007         20          
2015-02-20 12   12.0    89.6    1007         20          
2015-02-20 18   12.3    88.4    1005         20          
2015-02-21 00   12.6    87.2    1007         20          
2015-02-21 06   12.8    85.9    1004         25          
2015-02-21 12   13.0    84.7    1004         25          
2015-02-21 18   13.2    82.5    1007         20          
2015-02-22 00   13.2    80.7    1007         20          
2015-02-22 06   13.2    79.1    1004         25          
2015-02-22 12   13.2    77.1    1000         30          
2015-02-22 18   13.2    76.1    1000         30          
2015-02-23 00   13.4    75.5    1000         30          
2015-02-23 06   14.0    75.0    1000         30          
2015-02-23 12   14.8    74.4    1000         30          
2015-02-23 18   15.8    73.7    1000         30          
2015-02-24 00   16.2    72.7    1000         30          
2015-02-24 06   16.2    72.2     996    1    35          
2015-02-24 12   16.5    71.3     993    1    40          
2015-02-24 18   16.9    70.6     985    2    50          
2015-02-25 00   17.3    69.8     982    2    55          
2015-02-25 06   17.7    69.1     982    2    55          
2015-02-25 12   18.4    68.6     982    2    55          
2015-02-25 18   19.0    68.3     982    2    55          
2015-02-26 00   19.6    67.9     982    2    55          
2015-02-26 06   20.3    67.7     982    2    55          
2015-02-26 12   21.3    67.5     982    2    55          
2015-02-26 18   22.3    67.0     989    1    45          
2015-02-27 00   23.1    66.7     989    1    45          
2015-02-27 06   23.8    66.8     989    1    45          
2015-02-27 12   24.6    66.9     989    1    45          
2015-02-27 18   25.2    67.0     985    2    50          
2015-02-28 00   26.2    67.1     985    2    50          
2015-02-28 06   27.5    67.7     985    2    50          
2015-02-28 12   29.2    68.1     985    2    50          
2015-02-28 18   30.7    68.7     989    1    45          
2015-03-01 00   31.6    68.6     993    1    40          
2015-03-01 06   32.5    69.2     993    1    40          
2015-03-01 12   35.1    70.5                             
2015-03-01 18   35.4    72.1                             
2015-03-02 00   37.7    72.9                             
2015-03-02 06   40.0    74.9                             
2015-03-02 12   41.0    76.6                             
2015-03-02 18   43.1    78.9                             
2015-03-03 00   45.1    80.7                             
2015-03-03 06   46.0    83.1                             
2015-03-03 12   49.0    86.1                             
2015-03-03 18   52.4    89.8                             
Winds are 10-min average.

Tropical cyclone tracks developed by Michael Bath using operational warnings and advisories and Google Maps.


[Australian Severe Weather index] [Copyright Notice] [Email Contacts] [Search This Site] [Privacy Policy]
Document: tropical_cyclone_glenda.htm Updated: 2 May 2017